createdAt,value
2017-07-20T00:00:14.052Z,48.6
2017-07-20T00:01:15.844Z,48.3
2017-07-20T00:02:17.646Z,48.5
2017-07-20T00:03:19.450Z,48.6
2017-07-20T00:04:21.304Z,48.6
2017-07-20T00:05:22.774Z,48.7
2017-07-20T00:06:24.576Z,48.4
2017-07-20T00:07:26.052Z,48.4
2017-07-20T00:08:27.853Z,48.5
2017-07-20T00:09:29.651Z,48.7
2017-07-20T00:10:31.784Z,48.6
2017-07-20T00:11:33.915Z,48.7
2017-07-20T00:12:35.692Z,48.3
2017-07-20T00:13:37.825Z,48.5
2017-07-20T00:14:39.626Z,48.9
2017-07-20T00:15:41.091Z,48.4
2017-07-20T00:16:42.866Z,48.9
2017-07-20T00:17:44.313Z,48.7
2017-07-20T00:18:46.115Z,48.9
2017-07-20T00:19:47.233Z,48.9
2017-07-20T00:20:49.030Z,48.8
2017-07-20T00:21:50.808Z,48.5
2017-07-20T00:22:52.943Z,48.8
2017-07-20T00:23:54.414Z,48.8
2017-07-20T00:24:56.555Z,48.4
2017-07-20T00:25:58.686Z,48.8
2017-07-20T00:27:00.819Z,49.1
2017-07-20T00:28:02.618Z,48.5
2017-07-20T00:29:04.393Z,48.8
2017-07-20T00:30:06.526Z,48.8
2017-07-20T00:31:08.696Z,49.1
2017-07-20T00:32:10.829Z,48.8
2017-07-20T00:33:12.629Z,49
2017-07-20T00:34:14.076Z,48.8
2017-07-20T00:35:16.208Z,48.8
2017-07-20T00:36:18.345Z,48.9
2017-07-20T00:37:20.473Z,48.9
2017-07-20T00:38:22.607Z,49
2017-07-20T00:39:24.738Z,48.9
2017-07-20T00:40:26.540Z,48.9
2017-07-20T00:41:28.705Z,49.2
2017-07-20T00:42:30.838Z,49.1
2017-07-20T00:43:32.634Z,49
2017-07-20T00:44:34.768Z,48.8
2017-07-20T00:45:36.897Z,49.1
2017-07-20T00:46:38.368Z,48.9
2017-07-20T00:47:40.166Z,49.1
2017-07-20T00:48:41.973Z,48.8
2017-07-20T00:49:44.102Z,48.8
2017-07-20T00:50:45.881Z,48.9
2017-07-20T00:51:48.021Z,49.1
2017-07-20T00:52:49.828Z,49.2
2017-07-20T00:53:51.963Z,48.9
2017-07-20T00:54:54.094Z,48.8
2017-07-20T00:55:55.565Z,48.8
2017-07-20T00:56:57.014Z,48.9
2017-07-20T00:57:59.146Z,48.9
2017-07-20T00:59:00.947Z,49
2017-07-20T01:00:02.722Z,48.8
2017-07-20T01:01:03.837Z,48.9
2017-07-20T01:02:05.636Z,48.9
2017-07-20T01:03:06.756Z,48.8
2017-07-20T01:04:08.888Z,48.8
2017-07-20T01:05:10.690Z,48.8
2017-07-20T01:06:12.467Z,48.8
2017-07-20T01:07:14.270Z,48.7
2017-07-20T01:08:16.069Z,49.2
2017-07-20T01:09:17.868Z,49.2
2017-07-20T01:10:19.670Z,48.9
2017-07-20T01:11:21.800Z,49.2
2017-07-20T01:12:23.661Z,48.8
2017-07-20T01:13:25.462Z,48.8
2017-07-20T01:14:27.660Z,49.1
2017-07-20T01:15:29.797Z,49.2
2017-07-20T01:16:31.574Z,48.8
2017-07-20T01:17:33.378Z,49.3
2017-07-20T01:18:35.158Z,49.1
2017-07-20T01:19:37.291Z,48.9
2017-07-20T01:20:39.092Z,49.4
2017-07-20T01:21:41.221Z,49.2
2017-07-20T01:22:43.352Z,49.4
2017-07-20T01:23:45.490Z,49
2017-07-20T01:24:47.266Z,49
2017-07-20T01:25:49.400Z,49.1
2017-07-20T01:26:51.533Z,49.2
2017-07-20T01:27:53.669Z,49.2
2017-07-20T01:28:55.468Z,49.3
2017-07-20T01:29:57.269Z,49.3
2017-07-20T01:30:59.081Z,49.2
2017-07-20T01:32:00.882Z,49.2
2017-07-20T01:33:02.661Z,49.3
2017-07-20T01:34:04.786Z,49.1
2017-07-20T01:35:06.932Z,49.2
2017-07-20T01:36:08.720Z,49.3
2017-07-20T01:37:10.848Z,49.4
2017-07-20T01:38:12.627Z,49.3
2017-07-20T01:39:14.408Z,49
2017-07-20T01:40:16.537Z,49.2
2017-07-20T01:41:18.338Z,49.2
2017-07-20T01:42:20.156Z,49.3
2017-07-20T01:43:21.601Z,49.2
2017-07-20T01:44:23.736Z,49.3
2017-07-20T01:45:25.513Z,49.2
2017-07-20T01:46:27.300Z,49.4
2017-07-20T01:47:29.475Z,49.3
2017-07-20T01:48:31.271Z,49.3
2017-07-20T01:49:33.404Z,49.3
2017-07-20T01:50:35.538Z,49.3
2017-07-20T01:51:37.326Z,49.3
2017-07-20T01:52:39.458Z,49.2
2017-07-20T01:53:41.593Z,49.1
2017-07-20T01:54:43.726Z,49.2
2017-07-20T01:55:45.529Z,49.2
2017-07-20T01:56:47.662Z,49.2
2017-07-20T01:57:49.123Z,49.1
2017-07-20T01:58:51.270Z,49.1
2017-07-20T01:59:53.403Z,49.1
2017-07-20T02:00:55.537Z,49.2
2017-07-20T02:01:57.339Z,49.3
2017-07-20T02:02:59.473Z,49.1
2017-07-20T02:04:00.938Z,49.2
2017-07-20T02:05:03.072Z,49.1
2017-07-20T02:06:04.870Z,49.2
2017-07-20T02:07:06.746Z,49.3
2017-07-20T02:08:08.212Z,49.3
2017-07-20T02:09:10.347Z,49
2017-07-20T02:10:12.123Z,48.9
2017-07-20T02:11:14.259Z,49.1
2017-07-20T02:12:16.074Z,49.1
2017-07-20T02:13:17.847Z,49.4
2017-07-20T02:14:19.994Z,49.3
2017-07-20T02:15:21.782Z,49.4
2017-07-20T02:16:23.918Z,49
2017-07-20T02:17:25.716Z,49.2
2017-07-20T02:18:27.849Z,49.1
2017-07-20T02:19:29.982Z,49.2
2017-07-20T02:20:31.783Z,49.5
2017-07-20T02:21:33.584Z,49.2
2017-07-20T02:22:35.384Z,49.5
2017-07-20T02:23:36.831Z,49.2
2017-07-20T02:24:38.967Z,49.4
2017-07-20T02:25:40.765Z,49.3
2017-07-20T02:26:42.240Z,49.2
2017-07-20T02:27:44.039Z,49.2
2017-07-20T02:28:45.839Z,49.2
2017-07-20T02:29:47.663Z,49.1
2017-07-20T02:30:49.794Z,49.2
2017-07-20T02:31:51.645Z,49.2
2017-07-20T02:32:53.777Z,49.5
2017-07-20T02:33:55.575Z,49.2
2017-07-20T02:34:57.350Z,49.3
2017-07-20T02:35:59.161Z,49.6
2017-07-20T02:37:01.299Z,49.1
2017-07-20T02:38:03.431Z,49.4
2017-07-20T02:39:05.564Z,49.8
2017-07-20T02:40:07.697Z,49.3
2017-07-20T02:41:08.810Z,49.2
2017-07-20T02:42:41.749Z,49.3
2017-07-20T02:44:15.662Z,49.2
2017-07-20T02:45:16.796Z,49.2
2017-07-20T02:46:17.938Z,49.3
2017-07-20T02:47:20.068Z,49.8
2017-07-20T02:48:22.197Z,49.1
2017-07-20T02:49:24.330Z,49.7
2017-07-20T02:50:26.462Z,49.7
2017-07-20T02:51:28.592Z,49.6
2017-07-20T02:52:30.724Z,49.7
2017-07-20T02:53:32.503Z,49.6
2017-07-20T02:54:34.300Z,49.1
2017-07-20T02:55:35.748Z,49.4
2017-07-20T02:56:37.548Z,49.9
2017-07-20T02:57:39.680Z,49.4
2017-07-20T02:58:41.818Z,49.4
2017-07-20T02:59:43.948Z,49.3
2017-07-20T03:00:46.091Z,49.6
2017-07-20T03:01:47.872Z,49.5
2017-07-20T03:02:49.661Z,49.8
2017-07-20T03:03:51.458Z,49.2
2017-07-20T03:04:53.256Z,49.2
2017-07-20T03:05:54.058Z,49.7
2017-07-20T03:06:55.863Z,49.3
2017-07-20T03:07:57.660Z,49.8
2017-07-20T03:08:59.439Z,49.6
2017-07-20T03:10:01.256Z,49.8
2017-07-20T03:11:03.040Z,49.5
2017-07-20T03:12:04.838Z,49.2
2017-07-20T03:13:06.969Z,49.9
2017-07-20T03:14:09.112Z,49
2017-07-20T03:15:11.245Z,49.2
2017-07-20T03:16:13.071Z,49.4
2017-07-20T03:17:14.870Z,49.1
2017-07-20T03:18:16.671Z,49.5
2017-07-20T03:19:18.471Z,49.9
2017-07-20T03:20:20.270Z,49.2
2017-07-20T03:21:22.451Z,49.1
2017-07-20T03:22:24.251Z,49.5
2017-07-20T03:23:26.389Z,49
2017-07-20T03:24:28.183Z,49.6
2017-07-20T03:25:29.983Z,49.9
2017-07-20T03:26:31.834Z,49.1
2017-07-20T03:27:33.319Z,49.4
2017-07-20T03:28:34.763Z,49.3
2017-07-20T03:29:36.560Z,49.4
2017-07-20T03:30:38.365Z,49.4
2017-07-20T03:31:39.810Z,49.5
2017-07-20T03:32:41.940Z,49.7
2017-07-20T03:33:44.076Z,49.5
2017-07-20T03:34:46.204Z,49.4
2017-07-20T03:35:48.002Z,49.5
2017-07-20T03:36:50.138Z,49.4
2017-07-20T03:37:51.940Z,49.6
2017-07-20T03:38:54.074Z,49.4
2017-07-20T03:39:55.874Z,49.4
2017-07-20T03:40:57.342Z,49.4
2017-07-20T03:41:59.495Z,49.7
2017-07-20T03:43:00.938Z,49.4
2017-07-20T03:44:02.383Z,49.3
2017-07-20T03:45:04.163Z,49.6
2017-07-20T03:46:05.627Z,49.5
2017-07-20T03:47:07.809Z,49.4
2017-07-20T03:48:09.938Z,49.3
2017-07-20T03:49:11.398Z,49.3
2017-07-20T03:50:13.530Z,49.5
2017-07-20T03:51:15.660Z,49.3
2017-07-20T03:52:17.793Z,49.5
2017-07-20T03:53:19.589Z,49.4
2017-07-20T03:54:21.725Z,49.6
2017-07-20T03:55:23.855Z,49.5
2017-07-20T03:56:25.631Z,49.2
2017-07-20T03:57:27.438Z,49.5
2017-07-20T03:58:29.212Z,49.3
2017-07-20T03:59:31.012Z,49.4
2017-07-20T04:00:33.149Z,49.6
2017-07-20T04:01:34.949Z,49.6
2017-07-20T04:02:36.750Z,49.4
2017-07-20T04:03:38.903Z,49.2
2017-07-20T04:04:41.031Z,49.6
2017-07-20T04:05:43.165Z,49.4
2017-07-20T04:06:44.968Z,49.5
2017-07-20T04:07:46.435Z,49.9
2017-07-20T04:08:48.568Z,49.3
2017-07-20T04:09:50.698Z,49.2
2017-07-20T04:10:52.498Z,49.7
2017-07-20T04:11:54.500Z,49.9
2017-07-20T04:12:56.303Z,49.9
2017-07-20T04:13:58.101Z,49.5
2017-07-20T04:15:00.235Z,50.1
2017-07-20T04:16:02.364Z,49.2
2017-07-20T04:17:04.500Z,50.1
2017-07-20T04:18:06.314Z,49.9
2017-07-20T04:19:19.732Z,49.8
2017-07-20T04:20:21.863Z,49.6
2017-07-20T04:21:23.308Z,49.9
2017-07-20T04:22:25.083Z,49.8
2017-07-20T04:23:26.555Z,49.6
2017-07-20T04:24:28.687Z,49.8
2017-07-20T04:25:30.825Z,49.6
2017-07-20T04:26:32.951Z,49.4
2017-07-20T04:27:35.083Z,49.7
2017-07-20T04:28:37.214Z,49.7
2017-07-20T04:29:39.346Z,49.4
2017-07-20T04:30:41.150Z,49.5
2017-07-20T04:31:42.948Z,49.6
2017-07-20T04:32:45.065Z,49.6
2017-07-20T04:33:47.198Z,49.6
2017-07-20T04:34:48.975Z,49.5
2017-07-20T04:35:51.108Z,49.5
2017-07-20T04:36:53.247Z,49.7
2017-07-20T04:37:55.377Z,49.6
2017-07-20T04:38:57.508Z,49.7
2017-07-20T04:39:58.977Z,49.8
2017-07-20T04:41:00.762Z,49.8
2017-07-20T04:42:02.562Z,49.7
2017-07-20T04:43:04.361Z,49.6
2017-07-20T04:44:06.494Z,49.7
2017-07-20T04:45:07.963Z,50.1
2017-07-20T04:46:10.110Z,49.8
2017-07-20T04:47:11.919Z,49.9
2017-07-20T04:48:14.053Z,49.9
2017-07-20T04:49:16.182Z,49.9
2017-07-20T04:50:18.339Z,50
2017-07-20T04:51:19.804Z,49.7
2017-07-20T04:52:21.610Z,49.9
2017-07-20T04:53:23.742Z,49.8
2017-07-20T04:54:25.606Z,49.6
2017-07-20T04:55:26.720Z,49.6
2017-07-20T04:56:28.520Z,49.7
2017-07-20T04:57:30.330Z,49.8
2017-07-20T04:58:31.796Z,49.9
2017-07-20T04:59:33.598Z,50
2017-07-20T05:00:35.729Z,49.9
2017-07-20T05:01:57.065Z,49.9
2017-07-20T05:02:58.860Z,49.8
2017-07-20T05:04:00.994Z,49.8
2017-07-20T05:05:48.196Z,49.8
2017-07-20T05:06:49.641Z,49.7
2017-07-20T05:07:51.443Z,49.9
2017-07-20T05:08:52.911Z,49.9
2017-07-20T05:09:54.690Z,50
2017-07-20T05:10:56.822Z,50
2017-07-20T05:11:58.003Z,49.9
2017-07-20T05:12:59.809Z,50
2017-07-20T05:14:01.948Z,50.1
2017-07-20T05:15:03.401Z,50.3
2017-07-20T05:16:05.533Z,49.9
2017-07-20T05:17:07.665Z,49.7
2017-07-20T05:18:09.462Z,49.9
2017-07-20T05:19:10.932Z,49.9
2017-07-20T05:20:12.731Z,49.9
2017-07-20T05:21:14.203Z,49.9
2017-07-20T05:22:15.653Z,49.9
2017-07-20T05:23:17.458Z,49.9
2017-07-20T05:24:19.587Z,50.1
2017-07-20T05:25:21.387Z,50.1
2017-07-20T05:26:23.522Z,49.9
2017-07-20T05:27:25.650Z,50.1
2017-07-20T05:28:26.759Z,50.1
2017-07-20T05:29:28.620Z,50
2017-07-20T05:30:30.396Z,49.9
2017-07-20T05:31:32.197Z,49.9
2017-07-20T05:32:34.329Z,50
2017-07-20T05:33:36.460Z,50.2
2017-07-20T05:34:38.592Z,50.4
2017-07-20T05:35:40.038Z,50
2017-07-20T05:36:42.166Z,50
2017-07-20T05:37:44.301Z,49.9
2017-07-20T05:38:46.437Z,49.9
2017-07-20T05:39:48.233Z,50
2017-07-20T05:40:50.041Z,50
2017-07-20T05:41:51.840Z,50.4
2017-07-20T05:42:53.979Z,50
2017-07-20T05:43:56.108Z,50.2
2017-07-20T05:44:57.910Z,50.2
2017-07-20T05:46:00.049Z,50.1
2017-07-20T05:47:02.182Z,50.2
2017-07-20T05:48:04.312Z,50.3
2017-07-20T05:49:06.095Z,49.9
2017-07-20T05:50:07.879Z,50
2017-07-20T05:51:09.347Z,49.9
2017-07-20T05:52:10.824Z,50
2017-07-20T05:53:12.625Z,49.9
2017-07-20T05:54:14.759Z,50
2017-07-20T05:55:16.892Z,50.2
2017-07-20T05:56:18.691Z,50.1
2017-07-20T05:57:20.494Z,49.9
2017-07-20T05:58:22.629Z,50.4
2017-07-20T05:59:24.763Z,50.1
2017-07-20T06:00:26.893Z,50
2017-07-20T06:01:29.024Z,50.1
2017-07-20T06:02:31.158Z,50.1
2017-07-20T06:03:32.960Z,49.9
2017-07-20T06:04:35.094Z,50.1
2017-07-20T06:05:36.578Z,50.1
2017-07-20T06:06:38.339Z,50
2017-07-20T06:07:40.471Z,50
2017-07-20T06:08:42.607Z,50.2
2017-07-20T06:09:44.055Z,50.3
2017-07-20T06:10:45.527Z,50
2017-07-20T06:11:47.673Z,50
2017-07-20T06:12:49.469Z,50.1
2017-07-20T06:13:51.272Z,50.2
2017-07-20T06:14:53.069Z,49.9
2017-07-20T06:15:54.511Z,50
2017-07-20T06:16:56.314Z,50.1
2017-07-20T06:17:57.767Z,50.2
2017-07-20T06:18:59.901Z,50.1
2017-07-20T06:20:02.034Z,50.3
2017-07-20T06:21:03.889Z,49.9
2017-07-20T06:22:05.690Z,50.1
2017-07-20T06:23:07.168Z,50
2017-07-20T06:24:08.966Z,50
2017-07-20T06:25:10.764Z,50.1
2017-07-20T06:26:12.218Z,50
2017-07-20T06:27:13.663Z,50.4
2017-07-20T06:28:15.796Z,49.9
2017-07-20T06:29:17.930Z,50.2
2017-07-20T06:30:19.396Z,50
2017-07-20T06:31:21.172Z,50.2
2017-07-20T06:32:23.301Z,50.4
2017-07-20T06:33:25.083Z,50.1
2017-07-20T06:34:26.537Z,50.2
2017-07-20T06:35:28.334Z,50.1
2017-07-20T06:36:30.470Z,50.3
2017-07-20T06:37:32.276Z,50.5
2017-07-20T06:38:34.078Z,50.1
2017-07-20T06:39:35.876Z,50.3
2017-07-20T06:40:37.658Z,50.2
2017-07-20T06:41:39.792Z,50.1
2017-07-20T06:42:40.909Z,49.9
2017-07-20T06:43:43.043Z,50
2017-07-20T06:44:45.176Z,50.3
2017-07-20T06:45:46.981Z,50
2017-07-20T06:46:48.781Z,50.4
2017-07-20T06:47:50.915Z,50
2017-07-20T06:48:52.717Z,50
2017-07-20T06:49:54.525Z,49.9
2017-07-20T06:50:55.997Z,50.2
2017-07-20T06:51:57.844Z,50.2
2017-07-20T06:52:59.640Z,50.1
2017-07-20T06:54:01.449Z,50.2
2017-07-20T06:55:02.914Z,50.1
2017-07-20T06:56:04.375Z,50.4
2017-07-20T06:57:06.522Z,50.1
2017-07-20T06:58:08.656Z,50.1
2017-07-20T06:59:10.788Z,50.2
2017-07-20T07:00:12.921Z,50
2017-07-20T07:01:15.055Z,50.1
2017-07-20T07:02:16.503Z,50.1
2017-07-20T07:03:18.310Z,50.4
2017-07-20T07:04:20.440Z,50
2017-07-20T07:05:21.889Z,50
2017-07-20T07:06:24.018Z,50.5
2017-07-20T07:07:25.834Z,50.1
2017-07-20T07:08:27.636Z,50.1
2017-07-20T07:09:29.767Z,50.1
2017-07-20T07:10:31.572Z,50.2
2017-07-20T07:11:33.041Z,50
2017-07-20T07:12:34.152Z,50.3
2017-07-20T07:13:35.953Z,50
2017-07-20T07:14:37.065Z,50.2
2017-07-20T07:15:38.537Z,50
2017-07-20T07:16:40.011Z,50.2
2017-07-20T07:17:41.791Z,50.4
2017-07-20T07:18:43.239Z,50.1
2017-07-20T07:19:44.685Z,50
2017-07-20T07:20:45.819Z,50.1
2017-07-20T07:21:47.292Z,50
2017-07-20T07:22:49.425Z,50.3
2017-07-20T07:23:51.559Z,50
2017-07-20T07:24:53.693Z,50.2
2017-07-20T07:25:55.827Z,50.4
2017-07-20T07:26:57.627Z,50.1
2017-07-20T07:27:59.424Z,50.6
2017-07-20T07:29:01.224Z,50.4
2017-07-20T07:30:03.007Z,50.2
2017-07-20T07:31:04.452Z,50.4
2017-07-20T07:32:06.582Z,50.3
2017-07-20T07:33:08.386Z,50.6
2017-07-20T07:34:10.520Z,50.1
2017-07-20T07:35:12.295Z,50.6
2017-07-20T07:36:14.451Z,50.1
2017-07-20T07:37:16.230Z,50.5
2017-07-20T07:38:18.361Z,50.3
2017-07-20T07:39:20.494Z,50.2
2017-07-20T07:40:22.273Z,50.3
2017-07-20T07:41:24.412Z,50.5
2017-07-20T07:42:25.860Z,50.6
2017-07-20T07:43:28.049Z,50
2017-07-20T07:44:29.849Z,50.5
2017-07-20T07:45:31.314Z,50.3
2017-07-20T07:46:33.448Z,50.1
2017-07-20T07:47:35.581Z,50.3
2017-07-20T07:48:37.716Z,49.9
2017-07-20T07:49:39.849Z,50
2017-07-20T07:50:40.987Z,49.9
2017-07-20T07:51:43.123Z,49.9
2017-07-20T07:52:45.260Z,49.9
2017-07-20T07:53:47.065Z,49.8
2017-07-20T07:54:48.538Z,49.8
2017-07-20T07:55:50.671Z,49.9
2017-07-20T07:56:52.490Z,49.6
2017-07-20T07:57:54.613Z,50.1
2017-07-20T07:58:56.417Z,50.2
2017-07-20T07:59:58.219Z,50.2
2017-07-20T08:01:00.018Z,49.9
2017-07-20T08:02:01.480Z,49.9
2017-07-20T08:03:02.594Z,50.3
2017-07-20T08:04:04.728Z,50.1
2017-07-20T08:05:06.892Z,50.3
2017-07-20T08:06:07.996Z,50.3
2017-07-20T08:07:09.801Z,50.2
2017-07-20T08:08:11.934Z,49.7
2017-07-20T08:09:13.740Z,49.6
2017-07-20T08:10:15.208Z,50.1
2017-07-20T08:11:17.013Z,50.4
2017-07-20T08:12:18.815Z,50
2017-07-20T08:13:20.615Z,50.1
2017-07-20T08:14:22.081Z,50.4
2017-07-20T08:15:24.213Z,49.8
2017-07-20T08:16:25.663Z,49.6
2017-07-20T08:17:27.114Z,49.6
2017-07-20T08:18:28.580Z,49.9
2017-07-20T08:19:30.380Z,50.5
2017-07-20T08:20:32.184Z,50
2017-07-20T08:21:34.317Z,49.8
2017-07-20T08:22:36.456Z,50.2
2017-07-20T08:23:38.589Z,50
2017-07-20T08:24:40.369Z,49.7
2017-07-20T08:25:42.503Z,49.6
2017-07-20T08:26:44.636Z,49.2
2017-07-20T08:27:46.771Z,49.2
2017-07-20T08:28:48.548Z,49.6
2017-07-20T08:29:50.680Z,49.6
2017-07-20T08:30:52.128Z,49.7
2017-07-20T08:31:54.265Z,49.6
2017-07-20T08:32:56.404Z,49.5
2017-07-20T08:33:58.534Z,49.1
2017-07-20T08:35:00.010Z,49.9
2017-07-20T08:36:01.127Z,49.7
2017-07-20T08:37:02.598Z,49.8
2017-07-20T08:38:04.393Z,49.4
2017-07-20T08:39:05.585Z,49.3
2017-07-20T08:40:07.052Z,49.6
2017-07-20T08:41:08.859Z,49.3
2017-07-20T08:42:10.652Z,49.9
2017-07-20T08:43:12.789Z,49.7
2017-07-20T08:44:14.593Z,50
2017-07-20T08:45:16.399Z,49.2
2017-07-20T08:46:18.533Z,49.6
2017-07-20T08:47:20.667Z,49.3
2017-07-20T08:48:22.468Z,49.8
2017-07-20T08:49:24.271Z,49.7
2017-07-20T08:50:26.411Z,49.5
2017-07-20T08:51:28.185Z,49.5
2017-07-20T08:52:29.984Z,50.1
2017-07-20T08:53:31.782Z,50
2017-07-20T08:54:33.919Z,49.8
2017-07-20T08:55:36.071Z,49.9
2017-07-20T08:56:37.850Z,50.4
2017-07-20T08:57:39.984Z,49.7
2017-07-20T08:58:42.121Z,49.9
2017-07-20T08:59:43.897Z,49.9
2017-07-20T09:00:45.342Z,50
2017-07-20T09:01:47.489Z,50.4
2017-07-20T09:02:49.291Z,50.1
2017-07-20T09:03:51.425Z,49.8
2017-07-20T09:04:52.896Z,49.9
2017-07-20T09:05:54.703Z,50.2
2017-07-20T09:06:56.152Z,49.7
2017-07-20T09:07:58.281Z,49.7
2017-07-20T09:09:00.078Z,49.5
2017-07-20T09:10:01.532Z,49.7
2017-07-20T09:11:03.341Z,49.9
2017-07-20T09:12:05.142Z,49.5
2017-07-20T09:13:06.615Z,49.6
2017-07-20T09:14:08.398Z,50
2017-07-20T09:15:10.533Z,50.2
2017-07-20T09:16:12.330Z,49.7
2017-07-20T09:17:14.126Z,49.5
2017-07-20T09:18:15.592Z,49.8
2017-07-20T09:19:17.393Z,49.9
2017-07-20T09:20:19.194Z,50
2017-07-20T09:21:21.328Z,49.9
2017-07-20T09:22:23.461Z,49.7
2017-07-20T09:23:25.600Z,49.8
2017-07-20T09:24:27.377Z,49.9
2017-07-20T09:25:28.900Z,50.5
2017-07-20T09:26:30.349Z,51.2
2017-07-20T09:27:32.125Z,54.3
2017-07-20T09:28:33.928Z,55
2017-07-20T09:29:36.059Z,54.2
2017-07-20T09:30:38.296Z,53.7
2017-07-20T09:31:40.433Z,53
2017-07-20T09:32:42.242Z,51.6
2017-07-20T09:33:43.714Z,51.1
2017-07-20T09:34:45.161Z,51.2
2017-07-20T09:35:46.945Z,51.2
2017-07-20T09:36:49.081Z,51.3
2017-07-20T09:37:50.547Z,51
2017-07-20T09:38:52.684Z,50.8
2017-07-20T09:39:54.818Z,51.6
2017-07-20T09:40:56.369Z,51
2017-07-20T09:41:57.824Z,50.9
2017-07-20T09:42:59.623Z,50.8
2017-07-20T09:44:01.428Z,51.3
2017-07-20T09:45:03.565Z,51.4
2017-07-20T09:46:05.366Z,51.4
2017-07-20T09:47:07.167Z,51.1
2017-07-20T09:48:08.948Z,50.8
2017-07-20T09:49:10.757Z,51.7
2017-07-20T09:50:12.893Z,51.3
2017-07-20T09:51:14.391Z,51.2
2017-07-20T09:52:16.194Z,51.9
2017-07-20T09:53:18.008Z,51.1
2017-07-20T09:54:19.794Z,51
2017-07-20T09:55:21.933Z,51.2
2017-07-20T09:56:23.070Z,50.7
2017-07-20T09:57:24.871Z,51
2017-07-20T09:58:26.679Z,51.3
2017-07-20T09:59:28.813Z,51.2
2017-07-20T10:00:30.618Z,51.2
2017-07-20T10:01:32.425Z,51.2
2017-07-20T10:02:34.209Z,51.1
2017-07-20T10:03:36.012Z,50.7
2017-07-20T10:04:37.791Z,50.6
2017-07-20T10:05:39.605Z,50.6
2017-07-20T10:06:41.733Z,50.8
2017-07-20T10:07:43.535Z,50.7
2017-07-20T10:08:45.671Z,50.5
2017-07-20T10:09:47.137Z,50.9
2017-07-20T10:10:48.935Z,50.6
2017-07-20T10:11:50.734Z,50.5
2017-07-20T10:12:52.183Z,50.5
2017-07-20T10:13:53.630Z,50.7
2017-07-20T10:14:55.767Z,50.8
2017-07-20T10:15:57.900Z,50.5
2017-07-20T10:17:00.031Z,50.3
2017-07-20T10:18:01.480Z,50
2017-07-20T10:19:03.617Z,50.1
2017-07-20T10:20:05.754Z,50.5
2017-07-20T10:21:07.200Z,50.7
2017-07-20T10:22:08.313Z,50.1
2017-07-20T10:23:09.765Z,50.6
2017-07-20T10:24:11.902Z,50.6
2017-07-20T10:25:14.038Z,50.5
2017-07-20T10:26:16.172Z,50.5
2017-07-20T10:27:18.309Z,50.1
2017-07-20T10:28:20.449Z,50.2
2017-07-20T10:29:22.581Z,50.4
2017-07-20T10:30:24.714Z,50.1
2017-07-20T10:31:26.518Z,50.3
2017-07-20T10:32:27.966Z,50.5
2017-07-20T10:33:30.097Z,50.7
2017-07-20T10:34:31.899Z,50.6
2017-07-20T10:35:33.362Z,50.2
2017-07-20T10:36:34.811Z,50.3
2017-07-20T10:37:36.634Z,50.2
2017-07-20T10:38:38.436Z,50.6
2017-07-20T10:39:40.570Z,49.9
2017-07-20T10:40:42.374Z,50.2
2017-07-20T10:41:43.822Z,50.1
2017-07-20T10:42:45.293Z,50.3
2017-07-20T10:43:47.099Z,50.5
2017-07-20T10:44:49.235Z,50.3
2017-07-20T10:45:51.367Z,50.2
2017-07-20T10:46:52.833Z,50.6
2017-07-20T10:47:54.638Z,50.1
2017-07-20T10:48:56.779Z,50.1
2017-07-20T10:49:58.910Z,50.4
2017-07-20T10:51:01.045Z,50.5
2017-07-20T10:52:03.193Z,50.4
2017-07-20T10:53:05.329Z,50.3
2017-07-20T10:54:07.130Z,50.2
2017-07-20T10:55:09.265Z,50
2017-07-20T10:56:11.402Z,50.5
2017-07-20T10:57:13.204Z,50.5
2017-07-20T10:58:15.003Z,50.1
2017-07-20T10:59:16.808Z,50.2
2017-07-20T11:00:18.944Z,50.1
2017-07-20T11:01:20.723Z,50.1
2017-07-20T11:02:22.507Z,50.1
2017-07-20T11:03:24.640Z,50.6
2017-07-20T11:04:26.774Z,50.4
2017-07-20T11:05:28.912Z,50.5
2017-07-20T11:06:30.713Z,50.1
2017-07-20T11:07:32.513Z,50.5
2017-07-20T11:08:34.647Z,50
2017-07-20T11:09:36.779Z,49.8
2017-07-20T11:10:38.581Z,49.7
2017-07-20T11:11:40.384Z,49.9
2017-07-20T11:12:42.519Z,50
2017-07-20T11:13:44.303Z,49.7
2017-07-20T11:14:45.749Z,49.6
2017-07-20T11:15:47.886Z,49.8
2017-07-20T11:16:49.354Z,49.9
2017-07-20T11:17:51.488Z,49.7
2017-07-20T11:18:53.622Z,49.8
2017-07-20T11:19:54.768Z,49.7
2017-07-20T11:20:56.567Z,50
2017-07-20T11:21:58.703Z,49.6
2017-07-20T11:23:00.506Z,49.8
2017-07-20T11:24:02.359Z,50
2017-07-20T11:25:04.497Z,50
2017-07-20T11:26:06.645Z,49.7
2017-07-20T11:27:08.776Z,50.1
2017-07-20T11:28:10.581Z,49.9
2017-07-20T11:29:12.382Z,50
2017-07-20T11:30:14.184Z,50
2017-07-20T11:31:15.662Z,49.7
2017-07-20T11:32:17.464Z,49.7
2017-07-20T11:33:18.933Z,50.2
2017-07-20T11:34:20.733Z,50.3
2017-07-20T11:35:22.536Z,50.3
2017-07-20T11:36:24.673Z,49.6
2017-07-20T11:37:26.479Z,49.8
2017-07-20T11:38:27.949Z,49.7
2017-07-20T11:39:29.060Z,49.8
2017-07-20T11:40:30.197Z,50
2017-07-20T11:41:32.330Z,49.7
2017-07-20T11:42:33.799Z,49.7
2017-07-20T11:43:35.605Z,49.6
2017-07-20T11:44:37.407Z,50
2017-07-20T11:45:39.210Z,49.9
2017-07-20T11:46:41.362Z,50
2017-07-20T11:47:43.159Z,49.7
2017-07-20T11:48:45.292Z,49.9
2017-07-20T11:49:47.101Z,49.9
2017-07-20T11:50:48.911Z,50.1
2017-07-20T11:51:50.712Z,50.1
2017-07-20T11:52:52.513Z,50
2017-07-20T11:53:54.304Z,49.7
2017-07-20T11:54:55.769Z,49.7
2017-07-20T11:55:57.901Z,49.9
2017-07-20T11:57:00.034Z,49.2
2017-07-20T11:58:01.839Z,49.8
2017-07-20T11:59:03.611Z,49.2
2017-07-20T12:00:05.080Z,49.8
2017-07-20T12:01:06.196Z,49.6
2017-07-20T12:02:08.331Z,49.6
2017-07-20T12:03:10.136Z,49.9
2017-07-20T12:04:11.936Z,49.6
2017-07-20T12:05:14.077Z,50
2017-07-20T12:06:16.210Z,49.9
2017-07-20T12:07:18.346Z,49.7
2017-07-20T12:08:19.818Z,50.3
2017-07-20T12:09:21.953Z,50.1
2017-07-20T12:10:23.758Z,50.1
2017-07-20T12:11:25.897Z,50.1
2017-07-20T12:12:28.031Z,50.1
2017-07-20T12:13:29.834Z,50.2
2017-07-20T12:14:31.745Z,49.8
2017-07-20T12:15:33.549Z,49.7
2017-07-20T12:16:35.682Z,50.1
2017-07-20T12:17:37.819Z,50
2017-07-20T12:18:39.602Z,49.6
2017-07-20T12:19:41.067Z,49.6
2017-07-20T12:20:43.209Z,49.9
2017-07-20T12:21:45.009Z,49.9
2017-07-20T12:22:47.147Z,50
2017-07-20T12:23:48.930Z,49.8
2017-07-20T12:24:50.736Z,49.8
2017-07-20T12:25:52.516Z,49.4
2017-07-20T12:26:54.318Z,50
2017-07-20T12:27:56.099Z,49.5
2017-07-20T12:28:58.234Z,49.7
2017-07-20T12:30:00.366Z,49.9
2017-07-20T12:31:05.327Z,49.6
2017-07-20T12:32:39.221Z,49.7
2017-07-20T12:33:40.329Z,49.7
2017-07-20T12:34:42.138Z,50
2017-07-20T12:35:43.944Z,49.5
2017-07-20T12:36:45.744Z,49.6
2017-07-20T12:37:47.556Z,50
2017-07-20T12:38:49.352Z,50
2017-07-20T12:39:51.485Z,50
2017-07-20T12:40:53.288Z,49.4
2017-07-20T12:41:54.761Z,49.6
2017-07-20T12:42:56.565Z,49.4
2017-07-20T12:43:58.030Z,49.4
2017-07-20T12:44:59.481Z,49.4
2017-07-20T12:46:01.617Z,49.5
2017-07-20T12:47:03.421Z,49.4
2017-07-20T12:48:05.558Z,49.2
2017-07-20T12:49:07.696Z,49.3
2017-07-20T12:50:09.828Z,49.7
2017-07-20T12:51:11.324Z,49.4
2017-07-20T12:52:13.446Z,49.5
2017-07-20T12:53:14.892Z,49.8
2017-07-20T12:54:17.026Z,49.5
2017-07-20T12:55:18.809Z,49.5
2017-07-20T12:56:20.384Z,49.5
2017-07-20T12:57:22.523Z,49.7
2017-07-20T12:58:23.974Z,49.5
2017-07-20T12:59:26.115Z,49.6
2017-07-20T13:00:27.892Z,49.4
2017-07-20T13:01:29.399Z,49.7
2017-07-20T13:02:31.534Z,49.8
2017-07-20T13:03:33.671Z,49.1
2017-07-20T13:04:35.119Z,49.1
2017-07-20T13:05:37.253Z,49.5
2017-07-20T13:06:39.053Z,49.3
2017-07-20T13:07:40.859Z,49.2
2017-07-20T13:08:42.329Z,49.4
2017-07-20T13:09:44.134Z,49.5
2017-07-20T13:10:45.938Z,49.9
2017-07-20T13:11:48.070Z,50
2017-07-20T13:12:49.873Z,49.8
2017-07-20T13:13:51.673Z,49.2
2017-07-20T13:14:53.482Z,49.3
2017-07-20T13:15:55.283Z,49.7
2017-07-20T13:16:56.726Z,49.4
2017-07-20T13:17:58.182Z,49.4
2017-07-20T13:19:00.320Z,49.5
2017-07-20T13:20:01.438Z,49.8
2017-07-20T13:21:02.915Z,49.2
2017-07-20T13:22:04.389Z,49.5
2017-07-20T13:23:05.859Z,49.3
2017-07-20T13:24:06.995Z,49.3
2017-07-20T13:25:09.130Z,49.9
2017-07-20T13:26:11.265Z,49.6
2017-07-20T13:27:13.399Z,49.3
2017-07-20T13:28:14.545Z,49.2
2017-07-20T13:29:16.677Z,49.4
2017-07-20T13:30:18.151Z,49.3
2017-07-20T13:31:20.286Z,49.3
2017-07-20T13:32:22.420Z,49.5
2017-07-20T13:33:24.553Z,49.2
2017-07-20T13:34:26.689Z,48.9
2017-07-20T13:35:28.493Z,49.4
2017-07-20T13:36:30.300Z,49.4
2017-07-20T13:37:32.537Z,49.2
2017-07-20T13:38:34.675Z,49.3
2017-07-20T13:39:36.479Z,49.3
2017-07-20T13:40:37.932Z,49.3
2017-07-20T13:41:39.402Z,49.3
2017-07-20T13:42:40.519Z,49.3
2017-07-20T13:43:42.327Z,49.3
2017-07-20T13:44:44.460Z,49.2
2017-07-20T13:45:46.261Z,48.9
2017-07-20T13:46:47.710Z,48.9
2017-07-20T13:47:49.845Z,49.4
2017-07-20T13:48:51.649Z,49.1
2017-07-20T13:49:53.782Z,49.4
2017-07-20T13:50:55.584Z,48.8
2017-07-20T13:51:57.413Z,49.2